KMIE

Delaware County Regional Airport

Muncie, Indiana, USA
METAR KMIE 171553Z 26007KT 10SM FEW050 26/21 A2998 RMK AO2 SLP140 T02560211
Observed Flight Rules
Aug-17 @ 15:53 UTC (59 minutes ago) Visual Flight Rules
Wind Visibility Clouds
260° at 7 knots 10 miles
  • Few at 5,000' AGL
Temperatures Readings
Current 26°C / 79°F
Dewpoint 21°C / 70°F
Humidity 74%
Altimeter 29.98" Hg
Pressure 1014 hPa
Elevation 285
METAR KMIE 171553Z 26007KT 10SM FEW050 26/21 A2998 RMK AO2 SLP140 T02560211
Observed Flight Rules
Aug-17 @ 15:53 UTC
(59 minutes ago)
VFR
Wind Visibility
260° at 7 knots 10 miles
Clouds
  • Few at 5,000' AGL
Temperature Dewpoint
26°C / 79°F 21°C / 70°F
Humidity Altimeter Pressure
74% 29.98" Hg 1014 hPa